Danevang, Texas
Current Conditions -  °F | °C
As of 5:55 PM on Friday 28 Nov 2014 (Local Time) from KARM Reporting Station
Clear Clear  
Wind Chill: 63°   Ceiling: Unl
Heat Index: 63°   Visibility: 10mi
Dew Point: 57°   Wind: 8mph
Humidity: 80%   Direction: 160°SSE
Pressure: 30.16"   Gusts: NA
Location:  29.06°N, 96.21°W
Report Text: KARM 282355Z AUTO 16007KT 10SM CLR 17/14 A3016 RMK AO2 T01720137 10229 20172
Loading
Personal Weather Stations






























Interactive Weather Map New forecast layout! Learn more

10-Day Weather Forecast

Advertisements
Track Severe Weather on mobile